createdAt,value
2018-12-30T00:02:44.373Z,7.84
2018-12-30T00:05:50.529Z,7.77
2018-12-30T00:08:56.570Z,7.98
2018-12-30T00:12:02.191Z,8.05
2018-12-30T00:15:07.860Z,8.01
2018-12-30T00:18:13.500Z,8.09
2018-12-30T00:21:19.125Z,7.93
2018-12-30T00:24:24.726Z,8.13
2018-12-30T00:27:30.317Z,7.75
2018-12-30T00:30:35.933Z,7.71
2018-12-30T00:33:41.527Z,7.84
2018-12-30T00:36:47.151Z,7.58
2018-12-30T00:39:53.051Z,7.53
2018-12-30T00:42:58.711Z,7.58
2018-12-30T00:46:04.458Z,7.50
2018-12-30T00:49:10.052Z,7.41
2018-12-30T00:52:15.662Z,7.37
2018-12-30T00:55:21.299Z,7.31
2018-12-30T00:58:26.883Z,7.47
2018-12-30T01:01:32.525Z,7.76
2018-12-30T01:04:38.140Z,7.62
2018-12-30T01:07:43.801Z,7.51
2018-12-30T01:10:49.460Z,7.67
2018-12-30T01:13:55.089Z,7.52
2018-12-30T01:17:00.745Z,7.26
2018-12-30T01:20:07.382Z,7.62
2018-12-30T01:23:13.010Z,7.53
2018-12-30T01:26:18.671Z,7.41
2018-12-30T01:29:24.323Z,7.30
2018-12-30T01:32:29.963Z,7.23
2018-12-30T01:35:35.932Z,7.16
2018-12-30T01:38:41.556Z,7.34
2018-12-30T01:41:47.192Z,7.07
2018-12-30T01:44:52.827Z,7.45
2018-12-30T01:47:58.421Z,6.97
2018-12-30T01:51:04.042Z,7.16
2018-12-30T01:54:09.627Z,6.96
2018-12-30T01:57:15.259Z,6.97
2018-12-30T02:00:20.879Z,7.01
2018-12-30T02:03:26.532Z,6.76
2018-12-30T02:06:32.237Z,6.87
2018-12-30T02:09:38.028Z,6.46
2018-12-30T02:12:43.652Z,6.31
2018-12-30T02:15:49.248Z,6.78
2018-12-30T02:18:54.935Z,6.50
2018-12-30T02:22:00.933Z,6.66
2018-12-30T02:25:06.746Z,6.49
2018-12-30T02:28:12.355Z,6.71
2018-12-30T02:31:18.014Z,6.64
2018-12-30T02:34:24.042Z,6.47
2018-12-30T02:37:29.701Z,6.66
2018-12-30T02:40:35.344Z,6.24
2018-12-30T02:43:40.969Z,6.57
2018-12-30T02:46:46.638Z,6.71
2018-12-30T02:49:52.232Z,6.70
2018-12-30T02:52:57.863Z,6.66
2018-12-30T02:56:03.671Z,6.79
2018-12-30T02:59:09.281Z,6.52
2018-12-30T03:02:14.903Z,6.86
2018-12-30T03:05:20.497Z,6.77
2018-12-30T03:08:26.297Z,6.84
2018-12-30T03:11:32.282Z,6.38
2018-12-30T03:14:37.934Z,6.60
2018-12-30T03:17:43.556Z,6.59
2018-12-30T03:20:49.183Z,6.57
2018-12-30T03:23:55.188Z,6.72
2018-12-30T03:27:00.843Z,6.89
2018-12-30T03:30:07.296Z,6.67
2018-12-30T03:33:12.914Z,6.63
2018-12-30T03:36:18.582Z,6.82
2018-12-30T03:39:24.248Z,6.81
2018-12-30T03:42:29.866Z,6.90
2018-12-30T03:45:35.485Z,6.76
2018-12-30T03:48:41.143Z,6.78
2018-12-30T03:51:46.822Z,6.73
2018-12-30T03:54:52.454Z,6.58
2018-12-30T03:57:58.148Z,6.48
2018-12-30T04:01:03.771Z,6.46
2018-12-30T04:04:09.388Z,6.79
2018-12-30T04:07:14.986Z,6.84
2018-12-30T04:10:20.572Z,6.63
2018-12-30T04:13:26.162Z,6.92
2018-12-30T04:16:31.777Z,7.09
2018-12-30T04:19:37.400Z,6.96
2018-12-30T04:22:43.043Z,7.09
2018-12-30T04:25:48.732Z,7.20
2018-12-30T04:28:54.378Z,7.18
2018-12-30T04:32:00.008Z,7.10
2018-12-30T04:35:06.073Z,7.27
2018-12-30T04:38:11.694Z,7.42
2018-12-30T04:41:17.268Z,6.93
2018-12-30T04:44:22.883Z,7.13
2018-12-30T04:47:28.506Z,7.25
2018-12-30T04:50:34.153Z,7.05
2018-12-30T04:53:39.821Z,7.16
2018-12-30T04:56:45.472Z,6.95
2018-12-30T04:59:51.124Z,7.00
2018-12-30T05:02:56.764Z,7.23
2018-12-30T05:06:02.507Z,7.31
2018-12-30T05:09:08.900Z,7.36
2018-12-30T05:12:14.529Z,7.39
2018-12-30T05:15:20.102Z,7.62
2018-12-30T05:18:25.698Z,7.55
2018-12-30T05:21:31.303Z,7.31
2018-12-30T05:24:36.933Z,7.25
2018-12-30T05:27:42.523Z,7.30
2018-12-30T05:30:48.137Z,7.26
2018-12-30T05:33:53.736Z,7.58
2018-12-30T05:36:59.321Z,7.45
2018-12-30T05:40:05.058Z,7.56
2018-12-30T05:43:10.686Z,7.42
2018-12-30T05:46:16.339Z,7.60
2018-12-30T05:49:22.003Z,7.78
2018-12-30T05:52:27.664Z,7.70
2018-12-30T05:55:33.329Z,7.45
2018-12-30T05:58:38.967Z,7.48
2018-12-30T06:01:44.558Z,7.50
2018-12-30T06:04:50.193Z,7.43
2018-12-30T06:07:55.808Z,7.49
2018-12-30T06:11:01.466Z,7.57
2018-12-30T06:14:07.089Z,7.06
2018-12-30T06:17:12.743Z,7.41
2018-12-30T06:20:18.411Z,7.54
2018-12-30T06:23:24.257Z,7.51
2018-12-30T06:26:29.881Z,7.71
2018-12-30T06:29:35.480Z,7.62
2018-12-30T06:32:41.102Z,7.72
2018-12-30T06:35:46.698Z,7.77
2018-12-30T06:38:52.303Z,7.40
2018-12-30T06:41:57.945Z,7.54
2018-12-30T06:45:03.579Z,7.48
2018-12-30T06:48:09.185Z,7.39
2018-12-30T06:51:14.808Z,7.44
2018-12-30T06:54:20.511Z,7.37
2018-12-30T06:57:26.181Z,7.21
2018-12-30T07:00:31.800Z,7.30
2018-12-30T07:03:37.439Z,7.29
2018-12-30T07:06:43.111Z,7.55
2018-12-30T07:09:48.731Z,7.71
2018-12-30T07:12:54.407Z,7.84
2018-12-30T07:16:00.098Z,7.84
2018-12-30T07:19:06.676Z,7.68
2018-12-30T07:22:12.295Z,7.77
2018-12-30T07:25:17.894Z,7.44
2018-12-30T07:28:23.484Z,7.65
2018-12-30T07:31:29.070Z,7.89
2018-12-30T07:34:34.705Z,7.89
2018-12-30T07:37:40.319Z,7.93
2018-12-30T07:40:45.947Z,8.37
2018-12-30T07:43:51.651Z,8.68
2018-12-30T07:46:57.411Z,9.03
2018-12-30T07:50:03.053Z,9.65
2018-12-30T07:53:13.640Z,9.97
2018-12-30T07:56:16.068Z,10.58
2018-12-30T07:59:22.704Z,10.51
2018-12-30T08:02:28.398Z,10.90
2018-12-30T08:05:34.036Z,11.11
2018-12-30T08:08:39.704Z,11.73
2018-12-30T08:11:45.331Z,11.81
2018-12-30T08:14:51.131Z,12.29
2018-12-30T08:17:56.723Z,12.32
2018-12-30T08:21:02.340Z,12.07
2018-12-30T08:24:07.970Z,11.45
2018-12-30T08:27:13.597Z,11.87
2018-12-30T08:30:19.228Z,11.89
2018-12-30T08:33:24.876Z,12.18
2018-12-30T08:36:30.486Z,12.55
2018-12-30T08:39:36.154Z,13.34
2018-12-30T08:42:42.118Z,13.34
2018-12-30T08:45:47.719Z,13.20
2018-12-30T08:48:53.357Z,13.08
2018-12-30T08:51:59.007Z,13.59
2018-12-30T08:55:04.663Z,13.18
2018-12-30T08:58:10.285Z,13.46
2018-12-30T09:01:15.884Z,13.23
2018-12-30T09:04:21.487Z,13.38
2018-12-30T09:07:27.105Z,13.51
2018-12-30T09:10:32.790Z,13.75
2018-12-30T09:13:38.433Z,13.42
2018-12-30T09:16:44.046Z,12.75
2018-12-30T09:19:49.721Z,13.07
2018-12-30T09:22:55.380Z,13.52
2018-12-30T09:26:01.092Z,13.95
2018-12-30T09:29:06.768Z,14.31
2018-12-30T09:32:12.377Z,14.54
2018-12-30T09:35:18.017Z,14.13
2018-12-30T09:38:23.596Z,14.48
2018-12-30T09:41:29.201Z,14.64
2018-12-30T09:44:34.860Z,15.10
2018-12-30T09:47:40.442Z,14.87
2018-12-30T09:50:46.302Z,14.74
2018-12-30T09:53:52.056Z,14.86
2018-12-30T09:56:57.742Z,14.74
2018-12-30T10:00:03.891Z,15.14
2018-12-30T10:03:09.485Z,14.92
2018-12-30T10:06:15.081Z,14.81
2018-12-30T10:09:20.723Z,14.69
2018-12-30T10:12:26.314Z,14.69
2018-12-30T10:15:31.956Z,14.71
2018-12-30T10:18:37.587Z,13.73
2018-12-30T10:21:43.258Z,14.38
2018-12-30T10:24:48.921Z,14.70
2018-12-30T10:27:54.544Z,15.02
2018-12-30T10:31:00.267Z,14.85
2018-12-30T10:34:05.913Z,14.77
2018-12-30T10:37:11.620Z,15.01
2018-12-30T10:40:17.296Z,14.97
2018-12-30T10:43:22.943Z,14.81
2018-12-30T10:46:28.578Z,13.99
2018-12-30T10:49:34.162Z,13.67
2018-12-30T10:52:39.787Z,13.33
2018-12-30T10:55:45.844Z,13.51
2018-12-30T10:58:51.481Z,13.21
2018-12-30T11:01:57.068Z,13.33
2018-12-30T11:05:02.709Z,13.46
2018-12-30T11:08:09.399Z,13.72
2018-12-30T11:11:15.119Z,13.97
2018-12-30T11:14:20.733Z,14.90
2018-12-30T11:17:26.418Z,15.10
2018-12-30T11:20:32.039Z,14.06
2018-12-30T11:23:37.621Z,14.41
2018-12-30T11:26:43.265Z,14.31
2018-12-30T11:29:48.850Z,14.38
2018-12-30T11:32:54.441Z,14.69
2018-12-30T11:36:00.105Z,14.32
2018-12-30T11:39:07.549Z,14.75
2018-12-30T11:42:13.208Z,15.06
2018-12-30T11:45:18.878Z,15.61
2018-12-30T11:48:24.625Z,15.52
2018-12-30T11:51:30.290Z,15.25
2018-12-30T11:54:35.914Z,16.16
2018-12-30T11:57:41.547Z,16.05
2018-12-30T12:00:48.174Z,16.04
2018-12-30T12:03:53.766Z,16.17
2018-12-30T12:06:59.424Z,15.85
2018-12-30T12:10:05.616Z,15.43
2018-12-30T12:13:11.246Z,14.59
2018-12-30T12:16:16.887Z,14.64
2018-12-30T12:19:22.465Z,14.05
2018-12-30T12:22:28.075Z,13.64
2018-12-30T12:25:33.734Z,13.70
2018-12-30T12:28:39.410Z,13.01
2018-12-30T12:31:45.061Z,12.93
2018-12-30T12:34:50.680Z,13.14
2018-12-30T12:37:56.294Z,13.01
2018-12-30T12:41:01.923Z,13.20
2018-12-30T12:44:07.591Z,13.14
2018-12-30T12:47:13.217Z,13.32
2018-12-30T12:50:18.808Z,13.45
2018-12-30T12:53:24.402Z,13.34
2018-12-30T12:56:30.036Z,13.16
2018-12-30T12:59:35.674Z,12.90
2018-12-30T13:02:41.277Z,12.94
2018-12-30T13:05:46.916Z,12.88
2018-12-30T13:08:52.495Z,12.83
2018-12-30T13:11:58.099Z,12.89
2018-12-30T13:15:03.717Z,12.73
2018-12-30T13:18:09.348Z,12.64
2018-12-30T13:21:15.172Z,12.68
2018-12-30T13:24:20.814Z,12.70
2018-12-30T13:27:26.488Z,12.62
2018-12-30T13:30:32.445Z,12.62
2018-12-30T13:33:38.075Z,12.61
2018-12-30T13:36:43.710Z,12.53
2018-12-30T13:39:49.299Z,12.49
2018-12-30T13:42:54.926Z,12.39
2018-12-30T13:46:00.558Z,12.27
2018-12-30T13:49:06.155Z,12.20
2018-12-30T13:52:11.801Z,12.05
2018-12-30T13:55:17.458Z,12.18
2018-12-30T13:58:23.075Z,12.14
2018-12-30T14:01:28.781Z,11.86
2018-12-30T14:04:34.383Z,12.02
2018-12-30T14:07:40.009Z,12.04
2018-12-30T14:10:45.647Z,11.99
2018-12-30T14:13:51.237Z,12.03
2018-12-30T14:16:56.866Z,12.04
2018-12-30T14:20:02.509Z,11.97
2018-12-30T14:23:08.110Z,11.53
2018-12-30T14:26:13.754Z,11.87
2018-12-30T14:29:19.434Z,11.79
2018-12-30T14:32:25.118Z,11.70
2018-12-30T14:35:30.740Z,11.76
2018-12-30T14:38:36.375Z,11.76
2018-12-30T14:41:42.043Z,11.71
2018-12-30T14:44:47.720Z,11.78
2018-12-30T14:47:53.395Z,11.72
2018-12-30T14:50:59.058Z,11.68
2018-12-30T14:54:04.715Z,11.44
2018-12-30T14:57:10.395Z,11.59
2018-12-30T15:00:16.115Z,11.50
2018-12-30T15:03:21.727Z,11.58
2018-12-30T15:06:27.348Z,11.42
2018-12-30T15:09:35.773Z,11.43
2018-12-30T15:12:40.287Z,11.48
2018-12-30T15:15:45.981Z,11.39
2018-12-30T15:18:51.603Z,11.15
2018-12-30T15:21:57.243Z,11.28
2018-12-30T15:25:02.867Z,11.23
2018-12-30T15:28:08.516Z,11.08
2018-12-30T15:31:14.122Z,11.03
2018-12-30T15:34:19.720Z,10.87
2018-12-30T15:37:25.370Z,10.85
2018-12-30T15:40:31.035Z,11.02
2018-12-30T15:43:36.724Z,10.72
2018-12-30T15:46:42.355Z,10.88
2018-12-30T15:49:48.043Z,10.98
2018-12-30T15:52:53.786Z,10.48
2018-12-30T15:55:59.431Z,10.76
2018-12-30T15:59:05.079Z,10.87
2018-12-30T16:02:10.855Z,10.73
2018-12-30T16:05:16.489Z,10.50
2018-12-30T16:08:22.107Z,10.54
2018-12-30T16:11:27.730Z,10.40
2018-12-30T16:14:33.378Z,10.36
2018-12-30T16:17:39.014Z,10.32
2018-12-30T16:20:44.621Z,10.24
2018-12-30T16:23:50.266Z,10.41
2018-12-30T16:26:55.862Z,10.44
2018-12-30T16:30:01.483Z,10.43
2018-12-30T16:33:07.224Z,10.50
2018-12-30T16:36:12.815Z,10.38
2018-12-30T16:39:18.463Z,10.53
2018-12-30T16:42:24.098Z,10.33
2018-12-30T16:45:29.743Z,10.27
2018-12-30T16:48:35.386Z,10.40
2018-12-30T16:51:40.978Z,10.33
2018-12-30T16:54:46.578Z,10.34
2018-12-30T16:57:52.235Z,10.47
2018-12-30T17:00:57.901Z,10.24
2018-12-30T17:04:04.090Z,10.30
2018-12-30T17:07:09.838Z,10.25
2018-12-30T17:10:15.628Z,10.14
2018-12-30T17:13:21.295Z,10.01
2018-12-30T17:16:26.968Z,9.93
2018-12-30T17:19:32.634Z,10.13
2018-12-30T17:22:38.223Z,10.23
2018-12-30T17:25:43.877Z,10.17
2018-12-30T17:28:49.473Z,10.21
2018-12-30T17:31:55.098Z,10.16
2018-12-30T17:35:00.743Z,10.14
2018-12-30T17:38:06.452Z,10.16
2018-12-30T17:41:13.047Z,10.28
2018-12-30T17:44:18.682Z,10.14
2018-12-30T17:47:24.344Z,10.23
2018-12-30T17:50:30.033Z,10.03
2018-12-30T17:53:35.686Z,9.97
2018-12-30T17:56:41.416Z,10.05
2018-12-30T17:59:47.081Z,9.96
2018-12-30T18:02:52.719Z,10.10
2018-12-30T18:05:58.455Z,10.09
2018-12-30T18:09:04.792Z,10.19
2018-12-30T18:12:10.649Z,10.28
2018-12-30T18:15:16.303Z,10.01
2018-12-30T18:18:21.905Z,10.19
2018-12-30T18:21:27.532Z,10.25
2018-12-30T18:24:33.137Z,9.94
2018-12-30T18:27:39.848Z,9.96
2018-12-30T18:30:45.500Z,9.94
2018-12-30T18:33:51.123Z,9.60
2018-12-30T18:36:56.952Z,9.86
2018-12-30T18:40:02.619Z,9.68
2018-12-30T18:43:08.261Z,9.54
2018-12-30T18:46:13.930Z,9.50
2018-12-30T18:49:19.558Z,9.44
2018-12-30T18:52:25.181Z,9.61
2018-12-30T18:55:30.872Z,9.52
2018-12-30T18:58:36.554Z,9.52
2018-12-30T19:01:42.182Z,9.54
2018-12-30T19:04:47.787Z,9.50
2018-12-30T19:07:53.442Z,9.10
2018-12-30T19:10:59.070Z,9.19
2018-12-30T19:14:04.691Z,9.17
2018-12-30T19:17:10.363Z,9.18
2018-12-30T19:20:16.034Z,9.22
2018-12-30T19:23:21.794Z,9.43
2018-12-30T19:26:27.392Z,9.16
2018-12-30T19:29:33.004Z,9.31
2018-12-30T19:32:38.742Z,9.33
2018-12-30T19:35:44.369Z,9.10
2018-12-30T19:38:50.046Z,8.98
2018-12-30T19:41:55.669Z,9.01
2018-12-30T19:45:01.269Z,8.74
2018-12-30T19:48:06.893Z,8.77
2018-12-30T19:51:12.525Z,8.93
2018-12-30T19:54:18.155Z,9.09
2018-12-30T19:57:23.811Z,8.83
2018-12-30T20:00:29.468Z,9.05
2018-12-30T20:03:35.130Z,8.85
2018-12-30T20:06:40.804Z,9.01
2018-12-30T20:09:46.435Z,9.08
2018-12-30T20:12:52.072Z,9.17
2018-12-30T20:15:57.676Z,9.28
2018-12-30T20:19:03.286Z,9.25
2018-12-30T20:22:08.918Z,8.70
2018-12-30T20:25:14.524Z,8.84
2018-12-30T20:28:20.157Z,8.90
2018-12-30T20:31:25.847Z,8.79
2018-12-30T20:34:31.532Z,8.94
2018-12-30T20:37:37.153Z,8.87
2018-12-30T20:40:42.759Z,8.87
2018-12-30T20:43:48.415Z,8.97
2018-12-30T20:46:54.016Z,8.92
2018-12-30T20:49:59.645Z,8.98
2018-12-30T20:53:05.268Z,8.70
2018-12-30T20:56:10.945Z,8.52
2018-12-30T20:59:17.121Z,8.99
2018-12-30T21:02:22.742Z,8.75
2018-12-30T21:05:28.397Z,8.85
2018-12-30T21:08:34.074Z,8.51
2018-12-30T21:11:39.723Z,8.58
2018-12-30T21:14:45.355Z,8.70
2018-12-30T21:17:51.025Z,8.91
2018-12-30T21:20:56.655Z,8.68
2018-12-30T21:24:02.369Z,8.43
2018-12-30T21:27:08.048Z,8.64
2018-12-30T21:30:13.683Z,8.69
2018-12-30T21:33:19.359Z,8.66
2018-12-30T21:36:24.963Z,8.79
2018-12-30T21:39:30.531Z,8.60
2018-12-30T21:42:43.508Z,8.45
2018-12-30T21:45:43.549Z,8.59
2018-12-30T21:48:49.199Z,8.56
2018-12-30T21:51:54.914Z,8.71
2018-12-30T21:55:00.545Z,8.44
2018-12-30T21:58:06.185Z,8.71
2018-12-30T22:01:11.785Z,8.47
2018-12-30T22:04:17.412Z,8.84
2018-12-30T22:07:23.014Z,8.61
2018-12-30T22:10:28.592Z,8.61
2018-12-30T22:13:34.220Z,8.87
2018-12-30T22:16:39.858Z,8.93
2018-12-30T22:19:45.559Z,8.90
2018-12-30T22:22:51.195Z,8.74
2018-12-30T22:25:56.861Z,9.00
2018-12-30T22:29:02.541Z,8.98
2018-12-30T22:32:08.175Z,9.06
2018-12-30T22:35:13.806Z,8.89
2018-12-30T22:38:19.453Z,8.89
2018-12-30T22:41:25.081Z,8.98
2018-12-30T22:44:30.695Z,8.93
2018-12-30T22:47:36.292Z,8.68
2018-12-30T22:50:41.916Z,8.77
2018-12-30T22:53:47.557Z,8.72
2018-12-30T22:56:53.211Z,8.62
2018-12-30T22:59:58.841Z,8.40
2018-12-30T23:03:04.732Z,8.21
2018-12-30T23:06:10.334Z,8.22
2018-12-30T23:09:15.999Z,8.27
2018-12-30T23:12:21.970Z,8.37
2018-12-30T23:15:27.588Z,8.27
2018-12-30T23:18:33.298Z,8.39
2018-12-30T23:21:38.911Z,8.48
2018-12-30T23:24:44.554Z,8.48
2018-12-30T23:27:50.169Z,8.52
2018-12-30T23:30:55.751Z,8.47
2018-12-30T23:34:01.376Z,8.50
2018-12-30T23:37:07.116Z,8.32
2018-12-30T23:40:12.773Z,8.45
2018-12-30T23:43:18.411Z,8.60
2018-12-30T23:46:24.087Z,8.51
2018-12-30T23:49:29.734Z,8.26
2018-12-30T23:52:35.367Z,8.63
2018-12-30T23:55:40.997Z,8.72
2018-12-30T23:58:46.582Z,8.76
